createdAt,value
2023-05-16T00:02:52.202Z,101896.03
2023-05-16T00:08:14.229Z,101898.19
2023-05-16T00:13:36.081Z,101893.09
2023-05-16T00:18:58.179Z,101896.13
2023-05-16T00:24:19.983Z,101898.03
2023-05-16T00:29:41.750Z,101893.56
2023-05-16T00:35:04.228Z,101889.31
2023-05-16T00:40:26.334Z,101892.34
2023-05-16T00:45:49.044Z,101883.38
2023-05-16T00:51:11.163Z,101893.84
2023-05-16T00:56:34.124Z,101894.09
2023-05-16T01:01:56.811Z,101901.31
2023-05-16T01:07:19.023Z,101889.84
2023-05-16T01:12:58.164Z,101899.25
2023-05-16T01:18:34.717Z,101891.97
2023-05-16T01:24:08.820Z,101895.00
2023-05-16T01:29:30.764Z,101896.31
2023-05-16T01:34:53.075Z,101893.75
2023-05-16T01:40:35.628Z,101895.44
2023-05-16T01:46:09.651Z,101901.25
2023-05-16T01:51:35.832Z,101912.59
2023-05-16T01:56:58.410Z,101920.28
2023-05-16T02:02:20.880Z,101917.72
2023-05-16T02:07:43.744Z,101928.81
2023-05-16T02:13:05.576Z,101925.41
2023-05-16T02:18:30.338Z,101912.66
2023-05-16T02:23:52.294Z,101922.03
2023-05-16T02:29:15.394Z,101926.72
2023-05-16T02:34:37.348Z,101925.28
2023-05-16T02:39:59.441Z,101930.19
2023-05-16T02:45:21.393Z,101933.22
2023-05-16T02:50:43.440Z,101940.66
2023-05-16T02:56:07.254Z,101947.28
2023-05-16T03:01:29.243Z,101947.28
2023-05-16T03:06:51.514Z,101957.75
2023-05-16T03:12:13.419Z,101965.47
2023-05-16T03:17:35.565Z,101978.50
2023-05-16T03:22:57.388Z,101975.94
2023-05-16T03:28:19.211Z,101967.84
2023-05-16T03:33:40.979Z,101972.53
2023-05-16T03:39:02.898Z,101969.16
2023-05-16T03:44:24.752Z,101973.00
2023-05-16T03:49:46.529Z,101973.22
2023-05-16T03:55:09.508Z,101988.13
2023-05-16T04:00:31.344Z,101993.91
2023-05-16T04:05:53.145Z,101997.75
2023-05-16T04:11:14.907Z,102001.59
2023-05-16T04:16:36.709Z,102004.38
2023-05-16T04:21:58.654Z,102011.84
2023-05-16T04:27:20.452Z,102017.38
2023-05-16T04:32:42.366Z,102024.00
2023-05-16T04:38:04.969Z,102026.78
2023-05-16T04:43:27.051Z,102024.25
2023-05-16T04:48:49.006Z,102027.84
2023-05-16T04:54:11.032Z,102031.09
2023-05-16T04:59:32.833Z,102042.38
2023-05-16T05:04:55.015Z,102047.94
2023-05-16T05:10:16.990Z,102044.31
2023-05-16T05:15:39.189Z,102046.88
2023-05-16T05:21:01.082Z,102051.09
2023-05-16T05:26:25.716Z,102053.00
2023-05-16T05:31:47.667Z,102056.13
2023-05-16T05:37:09.659Z,102058.63
2023-05-16T05:42:31.430Z,102059.44
2023-05-16T05:47:53.430Z,102063.63
2023-05-16T05:53:15.355Z,102073.63
2023-05-16T05:58:37.239Z,102085.50
2023-05-16T06:04:00.153Z,102087.63
2023-05-16T06:09:23.775Z,102095.91
2023-05-16T06:14:45.616Z,102087.75
2023-05-16T06:20:08.336Z,102096.25
2023-05-16T06:25:30.644Z,102099.22
2023-05-16T06:30:52.496Z,102102.16
2023-05-16T06:36:14.310Z,102110.66
2023-05-16T06:41:36.186Z,102107.66
2023-05-16T06:46:58.146Z,102103.34
2023-05-16T06:52:20.043Z,102109.31
2023-05-16T06:57:41.922Z,102105.84
2023-05-16T07:03:07.083Z,102098.72
